sensor_id;sensor_type;location;lat;lon;timestamp;pressure;altitude;pressure_sealevel;temperature;humidity
61757;BME280;57225;61.460;24.060;2022-10-16T00:01:49;99615.50;;;10.26;100.00
61757;BME280;57225;61.460;24.060;2022-10-16T00:04:34;99609.06;;;10.32;100.00
61757;BME280;57225;61.460;24.060;2022-10-16T00:07:18;99611.84;;;10.32;100.00
61757;BME280;57225;61.460;24.060;2022-10-16T00:10:03;99582.97;;;10.16;100.00
61757;BME280;57225;61.460;24.060;2022-10-16T00:12:47;99606.78;;;10.24;100.00
61757;BME280;57225;61.460;24.060;2022-10-16T00:15:36;99599.63;;;10.23;100.00
61757;BME280;57225;61.460;24.060;2022-10-16T00:18:20;99598.78;;;10.26;100.00
61757;BME280;57225;61.460;24.060;2022-10-16T00:21:10;99605.94;;;10.27;100.00
61757;BME280;57225;61.460;24.060;2022-10-16T00:23:57;99595.59;;;10.27;100.00
61757;BME280;57225;61.460;24.060;2022-10-16T00:26:43;99580.13;;;10.23;100.00
61757;BME280;57225;61.460;24.060;2022-10-16T00:29:27;99585.31;;;10.24;100.00
61757;BME280;57225;61.460;24.060;2022-10-16T00:32:11;99587.56;;;10.36;100.00
61757;BME280;57225;61.460;24.060;2022-10-16T00:34:56;99569.72;;;10.30;100.00
61757;BME280;57225;61.460;24.060;2022-10-16T00:37:40;99584.84;;;10.29;100.00
61757;BME280;57225;61.460;24.060;2022-10-16T00:40:25;99580.50;;;10.25;100.00
61757;BME280;57225;61.460;24.060;2022-10-16T00:43:32;99580.88;;;10.27;100.00
61757;BME280;57225;61.460;24.060;2022-10-16T00:49:16;99565.38;;;10.26;100.00
61757;BME280;57225;61.460;24.060;2022-10-16T00:52:02;99567.69;;;10.31;100.00
61757;BME280;57225;61.460;24.060;2022-10-16T00:54:47;99565.28;;;10.33;100.00
61757;BME280;57225;61.460;24.060;2022-10-16T00:57:33;99568.53;;;10.28;100.00
61757;BME280;57225;61.460;24.060;2022-10-16T01:00:22;99568.06;;;10.33;100.00
61757;BME280;57225;61.460;24.060;2022-10-16T01:03:24;99564.50;;;10.32;100.00
61757;BME280;57225;61.460;24.060;2022-10-16T01:06:25;99561.72;;;10.32;100.00
61757;BME280;57225;61.460;24.060;2022-10-16T01:09:29;99558.13;;;10.32;100.00
61757;BME280;57225;61.460;24.060;2022-10-16T01:12:46;99570.88;;;10.33;100.00
61757;BME280;57225;61.460;24.060;2022-10-16T01:15:42;99566.94;;;10.27;100.00
61757;BME280;57225;61.460;24.060;2022-10-16T01:18:46;99564.97;;;10.27;100.00
61757;BME280;57225;61.460;24.060;2022-10-16T01:21:41;99571.72;;;10.26;100.00
61757;BME280;57225;61.460;24.060;2022-10-16T01:24:37;99563.84;;;10.21;100.00
61757;BME280;57225;61.460;24.060;2022-10-16T01:27:27;99567.81;;;10.20;100.00
61757;BME280;57225;61.460;24.060;2022-10-16T01:30:26;99547.97;;;10.15;100.00
61757;BME280;57225;61.460;24.060;2022-10-16T01:33:24;99550.69;;;10.22;100.00
61757;BME280;57225;61.460;24.060;2022-10-16T01:36:21;99559.06;;;10.18;100.00
61757;BME280;57225;61.460;24.060;2022-10-16T01:39:09;99548.72;;;10.22;100.00
61757;BME280;57225;61.460;24.060;2022-10-16T01:42:03;99552.69;;;10.21;100.00
61757;BME280;57225;61.460;24.060;2022-10-16T01:44:49;99549.50;;;10.23;100.00
61757;BME280;57225;61.460;24.060;2022-10-16T01:47:36;99541.97;;;10.20;100.00
61757;BME280;57225;61.460;24.060;2022-10-16T01:50:21;99533.53;;;10.27;100.00
61757;BME280;57225;61.460;24.060;2022-10-16T01:53:07;99533.53;;;10.27;100.00
61757;BME280;57225;61.460;24.060;2022-10-16T01:55:55;99533.13;;;10.28;100.00
61757;BME280;57225;61.460;24.060;2022-10-16T01:58:46;99532.75;;;10.26;100.00
61757;BME280;57225;61.460;24.060;2022-10-16T02:01:33;99533.06;;;10.32;100.00
61757;BME280;57225;61.460;24.060;2022-10-16T02:04:29;99520.81;;;10.26;100.00
61757;BME280;57225;61.460;24.060;2022-10-16T02:07:14;99512.00;;;10.31;100.00
61757;BME280;57225;61.460;24.060;2022-10-16T02:10:00;99496.91;;;10.28;100.00
61757;BME280;57225;61.460;24.060;2022-10-16T02:12:50;99510.47;;;10.26;100.00
61757;BME280;57225;61.460;24.060;2022-10-16T02:15:36;99503.28;;;10.29;100.00
61757;BME280;57225;61.460;24.060;2022-10-16T02:18:20;99506.53;;;10.24;100.00
61757;BME280;57225;61.460;24.060;2022-10-16T02:21:23;99502.03;;;10.33;100.00
61757;BME280;57225;61.460;24.060;2022-10-16T02:30:28;99484.81;;;10.42;100.00
61757;BME280;57225;61.460;24.060;2022-10-16T02:33:15;99486.03;;;10.37;100.00
61757;BME280;57225;61.460;24.060;2022-10-16T02:36:00;99484.09;;;10.34;100.00
61757;BME280;57225;61.460;24.060;2022-10-16T02:38:44;99484.13;;;10.31;100.00
61757;BME280;57225;61.460;24.060;2022-10-16T02:41:30;99487.31;;;10.33;100.00
61757;BME280;57225;61.460;24.060;2022-10-16T02:44:14;99486.47;;;10.36;100.00
61757;BME280;57225;61.460;24.060;2022-10-16T02:46:59;99499.25;;;10.33;100.00
61757;BME280;57225;61.460;24.060;2022-10-16T02:49:43;99498.78;;;10.38;100.00
61757;BME280;57225;61.460;24.060;2022-10-16T02:52:28;99486.03;;;10.37;100.00
61757;BME280;57225;61.460;24.060;2022-10-16T02:55:12;99488.88;;;10.34;100.00
61757;BME280;57225;61.460;24.060;2022-10-16T02:57:57;99491.25;;;10.35;100.00
61757;BME280;57225;61.460;24.060;2022-10-16T03:00:41;99493.19;;;10.38;100.00
61757;BME280;57225;61.460;24.060;2022-10-16T03:03:26;99481.72;;;10.33;100.00
61757;BME280;57225;61.460;24.060;2022-10-16T03:06:10;99481.78;;;10.29;100.00
61757;BME280;57225;61.460;24.060;2022-10-16T03:08:55;99483.31;;;10.34;100.00
61757;BME280;57225;61.460;24.060;2022-10-16T03:11:39;99486.09;;;10.34;100.00
61757;BME280;57225;61.460;24.060;2022-10-16T03:14:24;99479.72;;;10.37;100.00
61757;BME280;57225;61.460;24.060;2022-10-16T03:17:08;99483.69;;;10.36;100.00
61757;BME280;57225;61.460;24.060;2022-10-16T03:19:53;99477.75;;;10.34;100.00
61757;BME280;57225;61.460;24.060;2022-10-16T03:22:37;99472.91;;;10.38;100.00
61757;BME280;57225;61.460;24.060;2022-10-16T03:25:21;99477.66;;;10.41;100.00
61757;BME280;57225;61.460;24.060;2022-10-16T03:28:06;99471.22;;;10.44;100.00
61757;BME280;57225;61.460;24.060;2022-10-16T03:30:50;99472.81;;;10.45;100.00
61757;BME280;57225;61.460;24.060;2022-10-16T03:33:35;99467.22;;;10.48;100.00
61757;BME280;57225;61.460;24.060;2022-10-16T03:36:19;99457.69;;;10.46;100.00
61757;BME280;57225;61.460;24.060;2022-10-16T03:39:04;99458.41;;;10.50;100.00
61757;BME280;57225;61.460;24.060;2022-10-16T03:41:48;99458.38;;;10.54;100.00
61757;BME280;57225;61.460;24.060;2022-10-16T03:44:32;99463.91;;;10.57;100.00
61757;BME280;57225;61.460;24.060;2022-10-16T03:47:17;99458.00;;;10.52;100.00
61757;BME280;57225;61.460;24.060;2022-10-16T03:50:06;99469.47;;;10.57;100.00
61757;BME280;57225;61.460;24.060;2022-10-16T03:52:50;99463.09;;;10.57;100.00
61757;BME280;57225;61.460;24.060;2022-10-16T03:55:35;99463.09;;;10.57;100.00
61757;BME280;57225;61.460;24.060;2022-10-16T03:58:19;99463.63;;;10.48;100.00
61757;BME280;57225;61.460;24.060;2022-10-16T04:01:04;99464.06;;;10.46;100.00
61757;BME280;57225;61.460;24.060;2022-10-16T04:03:48;99442.66;;;10.40;100.00
61757;BME280;57225;61.460;24.060;2022-10-16T04:06:33;99450.81;;;10.54;100.00
61757;BME280;57225;61.460;24.060;2022-10-16T04:09:17;99448.06;;;10.51;100.00
61757;BME280;57225;61.460;24.060;2022-10-16T04:12:02;99456.09;;;10.45;100.00
61757;BME280;57225;61.460;24.060;2022-10-16T04:14:47;99453.63;;;10.51;100.00
61757;BME280;57225;61.460;24.060;2022-10-16T04:17:31;99457.97;;;10.55;100.00
61757;BME280;57225;61.460;24.060;2022-10-16T04:20:16;99455.22;;;10.52;100.00
61757;BME280;57225;61.460;24.060;2022-10-16T04:23:00;99455.53;;;10.57;100.00
61757;BME280;57225;61.460;24.060;2022-10-16T04:25:44;99438.91;;;10.50;100.00
61757;BME280;57225;61.460;24.060;2022-10-16T04:28:29;99447.16;;;10.61;100.00
61757;BME280;57225;61.460;24.060;2022-10-16T04:31:13;99442.78;;;10.60;100.00
61757;BME280;57225;61.460;24.060;2022-10-16T04:33:58;99440.78;;;10.60;100.00
61757;BME280;57225;61.460;24.060;2022-10-16T04:36:42;99427.69;;;10.57;100.00
61757;BME280;57225;61.460;24.060;2022-10-16T04:39:27;99434.41;;;10.60;100.00
61757;BME280;57225;61.460;24.060;2022-10-16T04:42:11;99422.41;;;10.63;100.00
61757;BME280;57225;61.460;24.060;2022-10-16T04:44:56;99414.94;;;10.56;100.00
61757;BME280;57225;61.460;24.060;2022-10-16T04:47:40;99420.53;;;10.56;100.00
61757;BME280;57225;61.460;24.060;2022-10-16T04:50:25;99421.75;;;10.55;100.00
61757;BME280;57225;61.460;24.060;2022-10-16T04:53:10;99410.22;;;10.53;100.00
61757;BME280;57225;61.460;24.060;2022-10-16T04:55:54;99406.72;;;10.49;100.00
61757;BME280;57225;61.460;24.060;2022-10-16T04:58:39;99409.03;;;10.54;100.00
61757;BME280;57225;61.460;24.060;2022-10-16T05:01:24;99411.41;;;10.56;100.00
61757;BME280;57225;61.460;24.060;2022-10-16T05:04:08;99402.59;;;10.57;100.00
61757;BME280;57225;61.460;24.060;2022-10-16T05:06:53;99393.81;;;10.59;100.00
61757;BME280;57225;61.460;24.060;2022-10-16T05:09:37;99388.72;;;10.54;100.00
61757;BME280;57225;61.460;24.060;2022-10-16T05:12:22;99390.66;;;10.57;100.00
61757;BME280;57225;61.460;24.060;2022-10-16T05:15:06;99378.78;;;10.53;100.00
61757;BME280;57225;61.460;24.060;2022-10-16T05:17:55;99381.69;;;10.45;100.00
61757;BME280;57225;61.460;24.060;2022-10-16T05:20:40;99380.41;;;10.50;100.00
61757;BME280;57225;61.460;24.060;2022-10-16T05:23:25;99390.75;;;10.49;100.00
61757;BME280;57225;61.460;24.060;2022-10-16T05:26:10;99392.81;;;10.45;100.00
61757;BME280;57225;61.460;24.060;2022-10-16T05:28:54;99380.53;;;10.43;100.00
61757;BME280;57225;61.460;24.060;2022-10-16T05:31:38;99384.44;;;10.49;100.00
61757;BME280;57225;61.460;24.060;2022-10-16T05:34:23;99378.97;;;10.42;100.00
61757;BME280;57225;61.460;24.060;2022-10-16T05:37:07;99380.94;;;10.41;100.00
61757;BME280;57225;61.460;24.060;2022-10-16T05:39:52;99389.63;;;10.47;100.00
61757;BME280;57225;61.460;24.060;2022-10-16T05:42:36;99378.84;;;10.49;100.00
61757;BME280;57225;61.460;24.060;2022-10-16T05:45:21;99385.25;;;10.46;100.00
61757;BME280;57225;61.460;24.060;2022-10-16T05:48:05;99377.78;;;10.39;100.00
61757;BME280;57225;61.460;24.060;2022-10-16T05:51:02;99387.63;;;10.47;100.00
61757;BME280;57225;61.460;24.060;2022-10-16T05:53:47;99380.88;;;10.45;100.00
61757;BME280;57225;61.460;24.060;2022-10-16T05:56:31;99373.31;;;10.45;100.00
61757;BME280;57225;61.460;24.060;2022-10-16T05:59:16;99374.91;;;10.46;100.00
61757;BME280;57225;61.460;24.060;2022-10-16T06:02:00;99377.31;;;10.44;100.00
61757;BME280;57225;61.460;24.060;2022-10-16T06:04:44;99380.09;;;10.44;100.00
61757;BME280;57225;61.460;24.060;2022-10-16T06:07:33;99380.94;;;10.41;100.00
61757;BME280;57225;61.460;24.060;2022-10-16T06:10:17;99378.97;;;10.42;100.00
61757;BME280;57225;61.460;24.060;2022-10-16T06:13:02;99374.97;;;10.43;100.00
61757;BME280;57225;61.460;24.060;2022-10-16T06:15:46;99366.28;;;10.37;100.00
61757;BME280;57225;61.460;24.060;2022-10-16T06:18:31;99383.31;;;10.43;100.00
61757;BME280;57225;61.460;24.060;2022-10-16T06:21:20;99386.03;;;10.46;100.00
61757;BME280;57225;61.460;24.060;2022-10-16T06:24:05;99380.47;;;10.46;100.00
61757;BME280;57225;61.460;24.060;2022-10-16T06:26:50;99379.78;;;10.39;100.00
61757;BME280;57225;61.460;24.060;2022-10-16T06:29:34;99379.78;;;10.39;100.00
61757;BME280;57225;61.460;24.060;2022-10-16T06:32:19;99387.72;;;10.40;100.00
61757;BME280;57225;61.460;24.060;2022-10-16T06:35:03;99394.88;;;10.41;100.00
61757;BME280;57225;61.460;24.060;2022-10-16T06:37:48;99393.69;;;10.42;100.00
61757;BME280;57225;61.460;24.060;2022-10-16T06:40:32;99389.41;;;10.34;100.00
61757;BME280;57225;61.460;24.060;2022-10-16T06:43:16;99398.00;;;10.43;100.00
61757;BME280;57225;61.460;24.060;2022-10-16T06:46:01;99387.72;;;10.40;100.00
61757;BME280;57225;61.460;24.060;2022-10-16T06:48:46;99385.84;;;10.34;100.00
61757;BME280;57225;61.460;24.060;2022-10-16T06:51:30;99380.56;;;10.39;100.00
61757;BME280;57225;61.460;24.060;2022-10-16T06:54:17;99376.59;;;10.40;100.00
61757;BME280;57225;61.460;24.060;2022-10-16T06:57:02;99379.31;;;10.44;100.00
61757;BME280;57225;61.460;24.060;2022-10-16T06:59:46;99373.28;;;10.49;100.00
61757;BME280;57225;61.460;24.060;2022-10-16T07:02:30;99382.06;;;10.47;100.00
61757;BME280;57225;61.460;24.060;2022-10-16T07:05:15;99384.44;;;10.49;100.00
61757;BME280;57225;61.460;24.060;2022-10-16T07:08:00;99390.00;;;10.49;100.00
61757;BME280;57225;61.460;24.060;2022-10-16T07:10:44;99382.78;;;10.52;100.00
61757;BME280;57225;61.460;24.060;2022-10-16T07:13:29;99381.19;;;10.51;100.00
61757;BME280;57225;61.460;24.060;2022-10-16T07:16:16;99374.84;;;10.50;100.00
61757;BME280;57225;61.460;24.060;2022-10-16T07:19:02;99379.19;;;10.51;100.00
61757;BME280;57225;61.460;24.060;2022-10-16T07:21:46;99359.59;;;10.58;100.00
61757;BME280;57225;61.460;24.060;2022-10-16T07:24:31;99380.28;;;10.61;100.00
61757;BME280;57225;61.460;24.060;2022-10-16T07:27:15;99377.41;;;10.64;100.00
61757;BME280;57225;61.460;24.060;2022-10-16T07:30:00;99384.50;;;10.69;100.00
61757;BME280;57225;61.460;24.060;2022-10-16T07:32:45;99386.94;;;10.67;100.00
61757;BME280;57225;61.460;24.060;2022-10-16T07:35:30;99379.38;;;10.67;100.00
61757;BME280;57225;61.460;24.060;2022-10-16T07:38:14;99381.69;;;10.72;100.00
61757;BME280;57225;61.460;24.060;2022-10-16T07:41:00;99367.03;;;10.68;100.00
61757;BME280;57225;61.460;24.060;2022-10-16T07:43:46;99363.84;;;10.66;100.00
61757;BME280;57225;61.460;24.060;2022-10-16T07:46:31;99372.91;;;10.74;100.00
61757;BME280;57225;61.460;24.060;2022-10-16T07:49:17;99381.69;;;10.72;100.00
61757;BME280;57225;61.460;24.060;2022-10-16T07:52:01;99380.00;;;10.78;100.00
61757;BME280;57225;61.460;24.060;2022-10-16T07:54:46;99373.22;;;10.79;100.00
61757;BME280;57225;61.460;24.060;2022-10-16T07:57:30;99375.09;;;10.86;100.00
61757;BME280;57225;61.460;24.060;2022-10-16T08:00:15;99373.44;;;10.88;100.00
61757;BME280;57225;61.460;24.060;2022-10-16T08:02:59;99355.09;;;10.91;100.00
61757;BME280;57225;61.460;24.060;2022-10-16T08:05:44;99360.25;;;10.93;100.00
61757;BME280;57225;61.460;24.060;2022-10-16T08:08:28;99374.91;;;10.97;100.00
61757;BME280;57225;61.460;24.060;2022-10-16T08:11:13;99368.50;;;11.00;100.00
61757;BME280;57225;61.460;24.060;2022-10-16T08:13:58;99369.50;;;11.09;100.00
61757;BME280;57225;61.460;24.060;2022-10-16T08:16:43;99361.94;;;11.10;100.00
61757;BME280;57225;61.460;24.060;2022-10-16T08:19:27;99362.00;;;11.06;100.00
61757;BME280;57225;61.460;24.060;2022-10-16T08:22:12;99352.41;;;11.07;100.00
61757;BME280;57225;61.460;24.060;2022-10-16T08:24:56;99350.13;;;11.02;100.00
61757;BME280;57225;61.460;24.060;2022-10-16T08:27:41;99366.78;;;11.06;100.00
61757;BME280;57225;61.460;24.060;2022-10-16T08:30:25;99363.16;;;11.09;100.00
61757;BME280;57225;61.460;24.060;2022-10-16T08:33:10;99370.72;;;11.08;100.00
61757;BME280;57225;61.460;24.060;2022-10-16T08:35:54;99357.16;;;11.10;100.00
61757;BME280;57225;61.460;24.060;2022-10-16T08:38:39;99363.94;;;11.09;100.00
61757;BME280;57225;61.460;24.060;2022-10-16T08:50:56;99360.22;;;11.16;100.00
61757;BME280;57225;61.460;24.060;2022-10-16T08:53:46;99359.03;;;11.17;100.00
61757;BME280;57225;61.460;24.060;2022-10-16T08:56:33;99352.59;;;11.20;100.00
61757;BME280;57225;61.460;24.060;2022-10-16T08:59:18;99362.59;;;11.17;100.00
61757;BME280;57225;61.460;24.060;2022-10-16T09:02:24;99357.75;;;11.21;100.00
61757;BME280;57225;61.460;24.060;2022-10-16T09:11:41;99346.53;;;11.25;100.00
61757;BME280;57225;61.460;24.060;2022-10-16T09:15:12;99347.25;;;11.29;100.00
61757;BME280;57225;61.460;24.060;2022-10-16T09:18:15;99349.97;;;11.33;100.00
61757;BME280;57225;61.460;24.060;2022-10-16T09:21:16;99349.53;;;11.34;100.00
61757;BME280;57225;61.460;24.060;2022-10-16T09:24:13;99348.63;;;11.41;100.00
61757;BME280;57225;61.460;24.060;2022-10-16T09:27:00;99341.03;;;11.41;100.00
61757;BME280;57225;61.460;24.060;2022-10-16T09:29:45;99342.63;;;11.42;100.00
61757;BME280;57225;61.460;24.060;2022-10-16T09:32:30;99342.66;;;11.39;100.00
61757;BME280;57225;61.460;24.060;2022-10-16T09:35:20;99335.81;;;11.43;100.00
61757;BME280;57225;61.460;24.060;2022-10-16T09:38:07;99335.81;;;11.43;100.00
61757;BME280;57225;61.460;24.060;2022-10-16T09:40:52;99330.09;;;11.50;100.00
61757;BME280;57225;61.460;24.060;2022-10-16T09:43:47;99332.41;;;11.55;100.00
61757;BME280;57225;61.460;24.060;2022-10-16T09:46:36;99331.53;;;11.58;100.00
61757;BME280;57225;61.460;24.060;2022-10-16T09:49:24;99324.59;;;11.66;100.00
61757;BME280;57225;61.460;24.060;2022-10-16T09:52:13;99319.00;;;11.66;100.00
61757;BME280;57225;61.460;24.060;2022-10-16T09:55:00;99308.50;;;11.54;100.00
61757;BME280;57225;61.460;24.060;2022-10-16T09:57:52;99304.50;;;11.55;100.00
61757;BME280;57225;61.460;24.060;2022-10-16T10:00:41;99313.94;;;11.61;100.00
61757;BME280;57225;61.460;24.060;2022-10-16T10:03:42;99317.06;;;11.63;100.00
61757;BME280;57225;61.460;24.060;2022-10-16T10:06:30;99321.25;;;11.75;100.00
61757;BME280;57225;61.460;24.060;2022-10-16T10:09:26;99322.47;;;11.74;100.00
61757;BME280;57225;61.460;24.060;2022-10-16T10:12:25;99321.97;;;11.79;100.00
61757;BME280;57225;61.460;24.060;2022-10-16T10:15:12;99318.47;;;11.75;100.00
61757;BME280;57225;61.460;24.060;2022-10-16T10:17:57;99314.09;;;11.74;100.00
61757;BME280;57225;61.460;24.060;2022-10-16T10:20:42;99303.31;;;11.73;100.00
61757;BME280;57225;61.460;24.060;2022-10-16T10:23:28;99303.31;;;11.73;100.00
61757;BME280;57225;61.460;24.060;2022-10-16T10:26:20;99307.31;;;11.75;100.00
61757;BME280;57225;61.460;24.060;2022-10-16T10:32:32;99303.31;;;11.73;100.00
61757;BME280;57225;61.460;24.060;2022-10-16T10:35:31;99308.44;;;11.78;100.00
61757;BME280;57225;61.460;24.060;2022-10-16T10:39:13;99299.38;;;11.90;100.00
61757;BME280;57225;61.460;24.060;2022-10-16T10:45:34;99293.78;;;11.74;100.00
61757;BME280;57225;61.460;24.060;2022-10-16T10:54:49;99296.25;;;11.68;100.00
61757;BME280;57225;61.460;24.060;2022-10-16T10:57:48;99294.94;;;11.73;100.00
61757;BME280;57225;61.460;24.060;2022-10-16T11:00:55;99295.38;;;11.71;100.00
61757;BME280;57225;61.460;24.060;2022-10-16T11:06:29;99284.31;;;11.67;100.00
61757;BME280;57225;61.460;24.060;2022-10-16T11:12:22;99285.09;;;11.68;100.00
61757;BME280;57225;61.460;24.060;2022-10-16T11:15:24;99277.81;;;11.74;100.00
61757;BME280;57225;61.460;24.060;2022-10-16T11:18:33;99278.28;;;11.69;100.00
61757;BME280;57225;61.460;24.060;2022-10-16T11:21:24;99280.03;;;11.63;100.00
61757;BME280;57225;61.460;24.060;2022-10-16T11:24:19;99274.72;;;11.68;100.00
61757;BME280;57225;61.460;24.060;2022-10-16T11:27:09;99282.72;;;11.66;100.00
61757;BME280;57225;61.460;24.060;2022-10-16T11:29:59;99269.28;;;11.61;100.00
61757;BME280;57225;61.460;24.060;2022-10-16T11:38:54;99265.75;;;11.77;100.00
61757;BME280;57225;61.460;24.060;2022-10-16T11:41:52;99263.34;;;11.79;100.00
61757;BME280;57225;61.460;24.060;2022-10-16T11:47:44;99251.75;;;11.81;100.00
61757;BME280;57225;61.460;24.060;2022-10-16T11:50:43;99240.47;;;11.84;100.00
61757;BME280;57225;61.460;24.060;2022-10-16T11:53:59;99239.28;;;11.85;100.00
61757;BME280;57225;61.460;24.060;2022-10-16T11:56:47;99233.31;;;11.83;100.00
61757;BME280;57225;61.460;24.060;2022-10-16T11:59:46;99221.88;;;11.78;100.00
61757;BME280;57225;61.460;24.060;2022-10-16T12:02:40;99228.09;;;11.85;100.00
61757;BME280;57225;61.460;24.060;2022-10-16T12:05:55;99221.66;;;11.88;100.00
61757;BME280;57225;61.460;24.060;2022-10-16T12:08:39;99223.66;;;11.88;100.00
61757;BME280;57225;61.460;24.060;2022-10-16T12:16:59;99214.03;;;11.89;100.00
61757;BME280;57225;61.460;24.060;2022-10-16T12:19:43;99212.66;;;11.97;100.00
61757;BME280;57225;61.460;24.060;2022-10-16T12:22:29;99186.13;;;11.89;100.00
61757;BME280;57225;61.460;24.060;2022-10-16T12:25:35;99209.03;;;12.00;100.00
61757;BME280;57225;61.460;24.060;2022-10-16T12:28:25;99197.91;;;11.96;100.00
61757;BME280;57225;61.460;24.060;2022-10-16T12:31:10;99187.72;;;11.90;100.00
61757;BME280;57225;61.460;24.060;2022-10-16T12:34:03;99203.97;;;11.95;100.00
61757;BME280;57225;61.460;24.060;2022-10-16T12:36:47;99196.97;;;11.87;100.00
61757;BME280;57225;61.460;24.060;2022-10-16T12:39:32;99194.50;;;11.89;100.00
61757;BME280;57225;61.460;24.060;2022-10-16T12:42:32;99197.81;;;11.84;100.00
61757;BME280;57225;61.460;24.060;2022-10-16T12:45:37;99192.31;;;11.80;100.00
61757;BME280;57225;61.460;24.060;2022-10-16T12:48:22;99192.47;;;11.73;100.00
61757;BME280;57225;61.460;24.060;2022-10-16T12:51:34;99191.66;;;11.73;100.00
61757;BME280;57225;61.460;24.060;2022-10-16T12:54:24;99191.75;;;11.69;100.00
61757;BME280;57225;61.460;24.060;2022-10-16T13:06:19;99178.22;;;11.67;100.00
61757;BME280;57225;61.460;24.060;2022-10-16T13:12:16;99181.38;;;11.69;100.00
61757;BME280;57225;61.460;24.060;2022-10-16T13:21:42;99171.44;;;11.68;100.00
61757;BME280;57225;61.460;24.060;2022-10-16T13:24:48;99170.13;;;11.73;100.00
61757;BME280;57225;61.460;24.060;2022-10-16T13:27:53;99167.44;;;11.69;100.00
61757;BME280;57225;61.460;24.060;2022-10-16T13:30:43;99158.69;;;11.67;100.00
61757;BME280;57225;61.460;24.060;2022-10-16T13:33:34;99161.91;;;11.66;100.00
61757;BME280;57225;61.460;24.060;2022-10-16T13:36:22;99157.97;;;11.63;100.00
61757;BME280;57225;61.460;24.060;2022-10-16T13:39:15;99160.06;;;11.59;100.00
61757;BME280;57225;61.460;24.060;2022-10-16T13:42:05;99152.91;;;11.58;100.00
61757;BME280;57225;61.460;24.060;2022-10-16T13:44:52;99154.84;;;11.61;100.00
61757;BME280;57225;61.460;24.060;2022-10-16T13:47:37;99149.69;;;11.60;100.00
61757;BME280;57225;61.460;24.060;2022-10-16T13:50:21;99143.31;;;11.59;100.00
61757;BME280;57225;61.460;24.060;2022-10-16T13:53:13;99139.47;;;11.53;100.00
61757;BME280;57225;61.460;24.060;2022-10-16T13:55:58;99131.53;;;11.52;100.00
61757;BME280;57225;61.460;24.060;2022-10-16T13:58:44;99137.84;;;11.56;100.00
61757;BME280;57225;61.460;24.060;2022-10-16T14:01:35;99122.75;;;11.53;100.00
61757;BME280;57225;61.460;24.060;2022-10-16T14:04:24;99138.25;;;11.54;100.00
61757;BME280;57225;61.460;24.060;2022-10-16T14:07:28;99135.91;;;11.53;100.00
61757;BME280;57225;61.460;24.060;2022-10-16T14:10:41;99125.69;;;11.46;100.00
61757;BME280;57225;61.460;24.060;2022-10-16T14:13:43;99127.63;;;11.49;100.00
61757;BME280;57225;61.460;24.060;2022-10-16T14:16:30;99130.06;;;11.47;100.00
61757;BME280;57225;61.460;24.060;2022-10-16T14:19:22;99121.31;;;11.45;100.00
61757;BME280;57225;61.460;24.060;2022-10-16T14:22:33;99124.47;;;11.47;100.00
61757;BME280;57225;61.460;24.060;2022-10-16T14:28:22;99108.94;;;11.46;100.00
61757;BME280;57225;61.460;24.060;2022-10-16T14:31:26;99111.91;;;11.39;100.00
61757;BME280;57225;61.460;24.060;2022-10-16T14:34:24;99097.63;;;11.37;100.00
61757;BME280;57225;61.460;24.060;2022-10-16T14:37:26;99090.47;;;11.36;100.00
61757;BME280;57225;61.460;24.060;2022-10-16T14:40:14;99102.47;;;11.33;100.00
61757;BME280;57225;61.460;24.060;2022-10-16T14:43:00;99100.91;;;11.32;100.00
61757;BME280;57225;61.460;24.060;2022-10-16T14:45:51;99085.72;;;11.33;100.00
61757;BME280;57225;61.460;24.060;2022-10-16T14:48:41;99077.81;;;11.32;100.00
61757;BME280;57225;61.460;24.060;2022-10-16T14:51:26;99083.47;;;11.28;100.00
61757;BME280;57225;61.460;24.060;2022-10-16T14:54:12;99079.81;;;11.31;100.00
61757;BME280;57225;61.460;24.060;2022-10-16T14:56:58;99072.31;;;11.28;100.00
61757;BME280;57225;61.460;24.060;2022-10-16T14:59:43;99073.09;;;11.28;100.00
61757;BME280;57225;61.460;24.060;2022-10-16T15:02:33;99070.81;;;11.23;100.00
61757;BME280;57225;61.460;24.060;2022-10-16T15:08:02;99058.94;;;11.19;100.00
61757;BME280;57225;61.460;24.060;2022-10-16T15:10:48;99077.88;;;11.28;100.00
61757;BME280;57225;61.460;24.060;2022-10-16T15:13:36;99075.47;;;11.30;100.00
61757;BME280;57225;61.460;24.060;2022-10-16T15:16:19;99072.72;;;11.26;100.00
61757;BME280;57225;61.460;24.060;2022-10-16T15:19:04;99071.94;;;11.26;100.00
61757;BME280;57225;61.460;24.060;2022-10-16T15:21:48;99065.88;;;11.31;100.00
61757;BME280;57225;61.460;24.060;2022-10-16T15:24:33;99084.78;;;11.40;100.00
61757;BME280;57225;61.460;24.060;2022-10-16T15:27:17;99074.94;;;11.35;100.00
61757;BME280;57225;61.460;24.060;2022-10-16T15:30:02;99077.47;;;11.46;100.00
61757;BME280;57225;61.460;24.060;2022-10-16T15:32:47;99079.47;;;11.45;100.00
61757;BME280;57225;61.460;24.060;2022-10-16T15:35:32;99065.53;;;11.45;100.00
61757;BME280;57225;61.460;24.060;2022-10-16T15:38:18;99068.66;;;11.47;100.00
61757;BME280;57225;61.460;24.060;2022-10-16T15:41:03;99078.78;;;11.41;100.00
61757;BME280;57225;61.460;24.060;2022-10-16T15:43:48;99071.03;;;11.49;100.00
61757;BME280;57225;61.460;24.060;2022-10-16T15:46:34;99052.97;;;11.37;100.00
61757;BME280;57225;61.460;24.060;2022-10-16T15:49:19;99067.81;;;11.50;100.00
61757;BME280;57225;61.460;24.060;2022-10-16T15:52:04;99065.34;;;11.52;100.00
61757;BME280;57225;61.460;24.060;2022-10-16T15:54:48;99065.34;;;11.52;100.00